sensor_id;sensor_type;location;lat;lon;timestamp;P1;durP1;ratioP1;P2;durP2;ratioP2
14748;SDS011;7466;53.574;9.976;2022-08-06T00:00:45;2.60;;;1.10;;
14748;SDS011;7466;53.574;9.976;2022-08-06T00:03:12;2.00;;;1.33;;
14748;SDS011;7466;53.574;9.976;2022-08-06T00:05:39;1.80;;;1.03;;
14748;SDS011;7466;53.574;9.976;2022-08-06T00:08:06;2.60;;;1.50;;
14748;SDS011;7466;53.574;9.976;2022-08-06T00:10:33;3.73;;;1.40;;
14748;SDS011;7466;53.574;9.976;2022-08-06T00:13:00;4.77;;;1.63;;
14748;SDS011;7466;53.574;9.976;2022-08-06T00:15:28;2.53;;;1.23;;
14748;SDS011;7466;53.574;9.976;2022-08-06T00:17:55;4.50;;;1.17;;
14748;SDS011;7466;53.574;9.976;2022-08-06T00:20:22;2.17;;;1.13;;
14748;SDS011;7466;53.574;9.976;2022-08-06T00:22:49;4.13;;;1.40;;
14748;SDS011;7466;53.574;9.976;2022-08-06T00:25:16;4.10;;;1.40;;
14748;SDS011;7466;53.574;9.976;2022-08-06T00:27:42;2.60;;;1.07;;
14748;SDS011;7466;53.574;9.976;2022-08-06T00:30:09;3.70;;;1.43;;
14748;SDS011;7466;53.574;9.976;2022-08-06T00:32:38;1.93;;;1.20;;
14748;SDS011;7466;53.574;9.976;2022-08-06T00:35:05;1.60;;;0.93;;
14748;SDS011;7466;53.574;9.976;2022-08-06T00:37:32;4.87;;;1.47;;
14748;SDS011;7466;53.574;9.976;2022-08-06T00:39:59;6.93;;;1.30;;
14748;SDS011;7466;53.574;9.976;2022-08-06T00:42:26;4.27;;;1.40;;
14748;SDS011;7466;53.574;9.976;2022-08-06T00:44:53;2.37;;;1.30;;
14748;SDS011;7466;53.574;9.976;2022-08-06T00:47:20;4.23;;;1.20;;
14748;SDS011;7466;53.574;9.976;2022-08-06T00:49:48;2.27;;;1.13;;
14748;SDS011;7466;53.574;9.976;2022-08-06T00:52:15;4.17;;;1.37;;
14748;SDS011;7466;53.574;9.976;2022-08-06T00:54:41;5.00;;;1.57;;
14748;SDS011;7466;53.574;9.976;2022-08-06T00:57:08;2.17;;;1.20;;
14748;SDS011;7466;53.574;9.976;2022-08-06T00:59:35;1.30;;;1.20;;
14748;SDS011;7466;53.574;9.976;2022-08-06T01:02:02;2.83;;;1.40;;
14748;SDS011;7466;53.574;9.976;2022-08-06T01:04:28;3.20;;;1.50;;
14748;SDS011;7466;53.574;9.976;2022-08-06T01:06:57;3.63;;;1.40;;
14748;SDS011;7466;53.574;9.976;2022-08-06T01:09:23;2.67;;;1.03;;
14748;SDS011;7466;53.574;9.976;2022-08-06T01:11:51;3.20;;;1.50;;
14748;SDS011;7466;53.574;9.976;2022-08-06T01:14:18;1.50;;;1.10;;
14748;SDS011;7466;53.574;9.976;2022-08-06T01:16:46;4.43;;;2.00;;
14748;SDS011;7466;53.574;9.976;2022-08-06T01:19:28;4.67;;;1.47;;
14748;SDS011;7466;53.574;9.976;2022-08-06T01:22:10;3.40;;;1.47;;
14748;SDS011;7466;53.574;9.976;2022-08-06T01:24:49;6.87;;;1.60;;
14748;SDS011;7466;53.574;9.976;2022-08-06T01:27:38;2.93;;;1.40;;
14748;SDS011;7466;53.574;9.976;2022-08-06T01:30:11;1.87;;;1.00;;
14748;SDS011;7466;53.574;9.976;2022-08-06T01:32:48;5.87;;;1.50;;
14748;SDS011;7466;53.574;9.976;2022-08-06T01:35:21;5.57;;;1.40;;
14748;SDS011;7466;53.574;9.976;2022-08-06T01:37:53;2.43;;;1.27;;
14748;SDS011;7466;53.574;9.976;2022-08-06T01:40:25;2.67;;;1.30;;
14748;SDS011;7466;53.574;9.976;2022-08-06T01:42:56;2.63;;;1.47;;
14748;SDS011;7466;53.574;9.976;2022-08-06T01:45:26;5.73;;;1.37;;
14748;SDS011;7466;53.574;9.976;2022-08-06T01:47:56;5.20;;;1.37;;
14748;SDS011;7466;53.574;9.976;2022-08-06T01:50:27;5.23;;;1.37;;
14748;SDS011;7466;53.574;9.976;2022-08-06T01:52:57;1.97;;;1.30;;
14748;SDS011;7466;53.574;9.976;2022-08-06T01:55:27;2.97;;;1.50;;
14748;SDS011;7466;53.574;9.976;2022-08-06T01:57:59;3.77;;;1.40;;
14748;SDS011;7466;53.574;9.976;2022-08-06T02:00:29;4.73;;;1.43;;
14748;SDS011;7466;53.574;9.976;2022-08-06T02:02:57;6.27;;;1.50;;
14748;SDS011;7466;53.574;9.976;2022-08-06T02:05:27;1.33;;;1.03;;
14748;SDS011;7466;53.574;9.976;2022-08-06T02:07:55;2.33;;;1.40;;
14748;SDS011;7466;53.574;9.976;2022-08-06T02:10:23;4.57;;;1.50;;
14748;SDS011;7466;53.574;9.976;2022-08-06T02:12:51;2.27;;;1.60;;
14748;SDS011;7466;53.574;9.976;2022-08-06T02:15:20;6.83;;;1.70;;
14748;SDS011;7466;53.574;9.976;2022-08-06T02:17:50;4.53;;;1.40;;
14748;SDS011;7466;53.574;9.976;2022-08-06T02:20:20;3.00;;;1.53;;
14748;SDS011;7466;53.574;9.976;2022-08-06T02:22:50;2.80;;;1.50;;
14748;SDS011;7466;53.574;9.976;2022-08-06T02:25:18;4.10;;;1.50;;
14748;SDS011;7466;53.574;9.976;2022-08-06T02:27:47;1.50;;;1.40;;
14748;SDS011;7466;53.574;9.976;2022-08-06T02:30:16;3.27;;;1.60;;
14748;SDS011;7466;53.574;9.976;2022-08-06T02:32:44;3.97;;;1.37;;
14748;SDS011;7466;53.574;9.976;2022-08-06T02:35:12;4.87;;;1.70;;
14748;SDS011;7466;53.574;9.976;2022-08-06T02:37:41;4.93;;;1.60;;
14748;SDS011;7466;53.574;9.976;2022-08-06T02:40:13;6.13;;;1.57;;
14748;SDS011;7466;53.574;9.976;2022-08-06T02:42:48;2.13;;;1.50;;
14748;SDS011;7466;53.574;9.976;2022-08-06T02:45:19;2.13;;;1.30;;
14748;SDS011;7466;53.574;9.976;2022-08-06T02:47:53;4.70;;;1.30;;
14748;SDS011;7466;53.574;9.976;2022-08-06T02:50:27;2.07;;;1.73;;
14748;SDS011;7466;53.574;9.976;2022-08-06T02:52:58;4.20;;;1.40;;
14748;SDS011;7466;53.574;9.976;2022-08-06T02:55:29;2.33;;;1.40;;
14748;SDS011;7466;53.574;9.976;2022-08-06T02:57:59;4.33;;;1.50;;
14748;SDS011;7466;53.574;9.976;2022-08-06T03:00:31;3.07;;;1.73;;
14748;SDS011;7466;53.574;9.976;2022-08-06T03:03:02;2.37;;;1.47;;
14748;SDS011;7466;53.574;9.976;2022-08-06T03:05:32;2.27;;;1.80;;
14748;SDS011;7466;53.574;9.976;2022-08-06T03:08:01;3.70;;;1.80;;
14748;SDS011;7466;53.574;9.976;2022-08-06T03:10:31;3.47;;;1.60;;
14748;SDS011;7466;53.574;9.976;2022-08-06T03:13:01;3.23;;;1.80;;
14748;SDS011;7466;53.574;9.976;2022-08-06T03:15:29;3.17;;;1.60;;
14748;SDS011;7466;53.574;9.976;2022-08-06T03:17:59;3.90;;;1.70;;
14748;SDS011;7466;53.574;9.976;2022-08-06T03:20:29;4.40;;;1.63;;
14748;SDS011;7466;53.574;9.976;2022-08-06T03:22:58;2.27;;;1.70;;
14748;SDS011;7466;53.574;9.976;2022-08-06T03:25:28;4.53;;;1.97;;
14748;SDS011;7466;53.574;9.976;2022-08-06T03:27:57;3.97;;;2.07;;
14748;SDS011;7466;53.574;9.976;2022-08-06T03:30:25;2.73;;;1.77;;
14748;SDS011;7466;53.574;9.976;2022-08-06T03:32:52;6.07;;;2.10;;
14748;SDS011;7466;53.574;9.976;2022-08-06T03:35:21;4.30;;;1.90;;
14748;SDS011;7466;53.574;9.976;2022-08-06T03:37:49;2.10;;;1.80;;
14748;SDS011;7466;53.574;9.976;2022-08-06T03:40:20;1.60;;;1.50;;
14748;SDS011;7466;53.574;9.976;2022-08-06T03:42:48;3.47;;;1.80;;
14748;SDS011;7466;53.574;9.976;2022-08-06T03:45:15;3.43;;;1.87;;
14748;SDS011;7466;53.574;9.976;2022-08-06T03:47:43;3.63;;;2.20;;
14748;SDS011;7466;53.574;9.976;2022-08-06T03:50:18;3.00;;;2.20;;
14748;SDS011;7466;53.574;9.976;2022-08-06T03:52:50;5.77;;;2.00;;
14748;SDS011;7466;53.574;9.976;2022-08-06T03:55:23;2.23;;;2.03;;
14748;SDS011;7466;53.574;9.976;2022-08-06T03:57:54;3.30;;;2.00;;
14748;SDS011;7466;53.574;9.976;2022-08-06T04:00:24;2.77;;;2.10;;
14748;SDS011;7466;53.574;9.976;2022-08-06T04:02:52;2.87;;;2.40;;
14748;SDS011;7466;53.574;9.976;2022-08-06T04:05:23;3.00;;;2.17;;
14748;SDS011;7466;53.574;9.976;2022-08-06T04:07:52;5.73;;;2.73;;
14748;SDS011;7466;53.574;9.976;2022-08-06T04:10:23;2.93;;;2.30;;
14748;SDS011;7466;53.574;9.976;2022-08-06T04:12:51;3.13;;;2.37;;
14748;SDS011;7466;53.574;9.976;2022-08-06T04:15:19;2.93;;;2.50;;
14748;SDS011;7466;53.574;9.976;2022-08-06T04:17:46;4.60;;;2.50;;
14748;SDS011;7466;53.574;9.976;2022-08-06T04:20:16;2.97;;;2.77;;
14748;SDS011;7466;53.574;9.976;2022-08-06T04:22:47;3.17;;;2.20;;
14748;SDS011;7466;53.574;9.976;2022-08-06T04:25:14;2.83;;;2.63;;
14748;SDS011;7466;53.574;9.976;2022-08-06T04:27:41;4.77;;;2.83;;
14748;SDS011;7466;53.574;9.976;2022-08-06T04:30:11;2.63;;;2.47;;
14748;SDS011;7466;53.574;9.976;2022-08-06T04:32:38;3.67;;;2.47;;
14748;SDS011;7466;53.574;9.976;2022-08-06T04:35:08;3.83;;;2.73;;
14748;SDS011;7466;53.574;9.976;2022-08-06T04:37:36;4.67;;;2.70;;
14748;SDS011;7466;53.574;9.976;2022-08-06T04:40:07;3.97;;;2.47;;
14748;SDS011;7466;53.574;9.976;2022-08-06T04:42:35;2.60;;;2.40;;
14748;SDS011;7466;53.574;9.976;2022-08-06T04:45:02;3.83;;;2.70;;
14748;SDS011;7466;53.574;9.976;2022-08-06T04:47:30;4.20;;;2.60;;
14748;SDS011;7466;53.574;9.976;2022-08-06T04:49:58;2.90;;;2.70;;
14748;SDS011;7466;53.574;9.976;2022-08-06T04:52:26;3.73;;;2.47;;
14748;SDS011;7466;53.574;9.976;2022-08-06T04:54:54;3.63;;;2.53;;
14748;SDS011;7466;53.574;9.976;2022-08-06T04:57:22;2.53;;;2.43;;
14748;SDS011;7466;53.574;9.976;2022-08-06T04:59:49;3.53;;;2.70;;
14748;SDS011;7466;53.574;9.976;2022-08-06T05:02:15;2.67;;;2.40;;
14748;SDS011;7466;53.574;9.976;2022-08-06T05:04:42;2.57;;;2.37;;
14748;SDS011;7466;53.574;9.976;2022-08-06T05:07:11;4.40;;;2.40;;
14748;SDS011;7466;53.574;9.976;2022-08-06T05:09:41;2.73;;;2.53;;
14748;SDS011;7466;53.574;9.976;2022-08-06T05:12:11;5.47;;;2.30;;
14748;SDS011;7466;53.574;9.976;2022-08-06T05:14:48;4.50;;;2.50;;
14748;SDS011;7466;53.574;9.976;2022-08-06T05:17:19;2.33;;;2.00;;
14748;SDS011;7466;53.574;9.976;2022-08-06T05:19:50;2.43;;;2.10;;
14748;SDS011;7466;53.574;9.976;2022-08-06T05:22:21;4.63;;;2.17;;
14748;SDS011;7466;53.574;9.976;2022-08-06T05:24:49;4.17;;;2.40;;
14748;SDS011;7466;53.574;9.976;2022-08-06T05:27:16;2.43;;;2.20;;
14748;SDS011;7466;53.574;9.976;2022-08-06T05:29:43;2.43;;;2.20;;
14748;SDS011;7466;53.574;9.976;2022-08-06T05:32:11;4.67;;;2.10;;
14748;SDS011;7466;53.574;9.976;2022-08-06T05:34:39;2.83;;;2.00;;
14748;SDS011;7466;53.574;9.976;2022-08-06T05:37:05;3.70;;;1.90;;
14748;SDS011;7466;53.574;9.976;2022-08-06T05:39:32;4.57;;;1.60;;
14748;SDS011;7466;53.574;9.976;2022-08-06T05:41:59;5.13;;;1.73;;
14748;SDS011;7466;53.574;9.976;2022-08-06T05:44:26;2.60;;;1.90;;
14748;SDS011;7466;53.574;9.976;2022-08-06T05:46:54;4.87;;;1.70;;
14748;SDS011;7466;53.574;9.976;2022-08-06T05:49:26;3.27;;;1.77;;
14748;SDS011;7466;53.574;9.976;2022-08-06T05:51:57;4.37;;;1.87;;
14748;SDS011;7466;53.574;9.976;2022-08-06T05:54:32;2.37;;;1.47;;
14748;SDS011;7466;53.574;9.976;2022-08-06T05:57:03;1.97;;;1.77;;
14748;SDS011;7466;53.574;9.976;2022-08-06T05:59:37;5.10;;;1.70;;
14748;SDS011;7466;53.574;9.976;2022-08-06T06:02:07;1.53;;;1.40;;
14748;SDS011;7466;53.574;9.976;2022-08-06T06:04:38;2.83;;;1.40;;
14748;SDS011;7466;53.574;9.976;2022-08-06T06:07:06;2.77;;;1.50;;
14748;SDS011;7466;53.574;9.976;2022-08-06T06:09:34;5.23;;;1.53;;
14748;SDS011;7466;53.574;9.976;2022-08-06T06:12:02;2.13;;;1.40;;
14748;SDS011;7466;53.574;9.976;2022-08-06T06:14:33;4.83;;;1.50;;
14748;SDS011;7466;53.574;9.976;2022-08-06T06:17:15;3.90;;;1.43;;
14748;SDS011;7466;53.574;9.976;2022-08-06T06:19:56;1.93;;;1.73;;
14748;SDS011;7466;53.574;9.976;2022-08-06T06:22:31;1.77;;;1.67;;
14748;SDS011;7466;53.574;9.976;2022-08-06T06:25:06;3.93;;;1.33;;
14748;SDS011;7466;53.574;9.976;2022-08-06T06:27:40;3.97;;;1.50;;
14748;SDS011;7466;53.574;9.976;2022-08-06T06:30:15;3.40;;;1.40;;
14748;SDS011;7466;53.574;9.976;2022-08-06T06:32:47;2.27;;;1.20;;
14748;SDS011;7466;53.574;9.976;2022-08-06T06:35:22;3.47;;;1.40;;
14748;SDS011;7466;53.574;9.976;2022-08-06T06:37:56;2.87;;;1.27;;
14748;SDS011;7466;53.574;9.976;2022-08-06T06:40:35;2.10;;;1.50;;
14748;SDS011;7466;53.574;9.976;2022-08-06T06:43:11;0.90;;;0.90;;
14748;SDS011;7466;53.574;9.976;2022-08-06T06:45:45;3.30;;;1.30;;
14748;SDS011;7466;53.574;9.976;2022-08-06T06:48:18;2.63;;;1.27;;
14748;SDS011;7466;53.574;9.976;2022-08-06T06:50:51;2.03;;;1.30;;
14748;SDS011;7466;53.574;9.976;2022-08-06T06:53:20;4.03;;;1.30;;
14748;SDS011;7466;53.574;9.976;2022-08-06T06:55:50;1.93;;;1.10;;
14748;SDS011;7466;53.574;9.976;2022-08-06T06:58:25;1.87;;;1.00;;
14748;SDS011;7466;53.574;9.976;2022-08-06T07:00:58;4.57;;;1.27;;
14748;SDS011;7466;53.574;9.976;2022-08-06T07:03:25;3.87;;;1.00;;
14748;SDS011;7466;53.574;9.976;2022-08-06T07:05:55;1.17;;;1.07;;
14748;SDS011;7466;53.574;9.976;2022-08-06T07:08:23;2.13;;;0.80;;
14748;SDS011;7466;53.574;9.976;2022-08-06T07:10:52;3.23;;;1.00;;
14748;SDS011;7466;53.574;9.976;2022-08-06T07:13:20;2.33;;;1.10;;
14748;SDS011;7466;53.574;9.976;2022-08-06T07:15:48;3.27;;;1.47;;
14748;SDS011;7466;53.574;9.976;2022-08-06T07:18:15;2.07;;;1.10;;
14748;SDS011;7466;53.574;9.976;2022-08-06T07:20:43;1.90;;;0.93;;
14748;SDS011;7466;53.574;9.976;2022-08-06T07:23:12;2.77;;;1.30;;
14748;SDS011;7466;53.574;9.976;2022-08-06T07:25:42;2.83;;;1.10;;
14748;SDS011;7466;53.574;9.976;2022-08-06T07:28:12;1.23;;;1.07;;
14748;SDS011;7466;53.574;9.976;2022-08-06T07:30:40;2.57;;;1.00;;
14748;SDS011;7466;53.574;9.976;2022-08-06T07:33:08;1.77;;;1.00;;
14748;SDS011;7466;53.574;9.976;2022-08-06T07:35:36;2.00;;;0.83;;
14748;SDS011;7466;53.574;9.976;2022-08-06T07:38:08;1.87;;;0.80;;
14748;SDS011;7466;53.574;9.976;2022-08-06T07:40:39;2.47;;;1.00;;
14748;SDS011;7466;53.574;9.976;2022-08-06T07:43:10;3.33;;;0.90;;
14748;SDS011;7466;53.574;9.976;2022-08-06T07:45:39;5.63;;;1.23;;
14748;SDS011;7466;53.574;9.976;2022-08-06T07:48:07;4.77;;;0.80;;
14748;SDS011;7466;53.574;9.976;2022-08-06T07:50:37;1.00;;;0.80;;
14748;SDS011;7466;53.574;9.976;2022-08-06T07:53:05;1.80;;;0.73;;
14748;SDS011;7466;53.574;9.976;2022-08-06T07:55:33;2.50;;;0.83;;
14748;SDS011;7466;53.574;9.976;2022-08-06T07:58:03;3.13;;;1.00;;
14748;SDS011;7466;53.574;9.976;2022-08-06T08:00:31;1.67;;;0.97;;
14748;SDS011;7466;53.574;9.976;2022-08-06T08:02:58;1.47;;;0.60;;
14748;SDS011;7466;53.574;9.976;2022-08-06T08:05:44;3.47;;;0.97;;
14748;SDS011;7466;53.574;9.976;2022-08-06T08:08:29;0.80;;;0.80;;
14748;SDS011;7466;53.574;9.976;2022-08-06T08:10:56;2.07;;;0.73;;
14748;SDS011;7466;53.574;9.976;2022-08-06T08:13:25;0.87;;;0.60;;
14748;SDS011;7466;53.574;9.976;2022-08-06T08:15:53;1.33;;;0.53;;
14748;SDS011;7466;53.574;9.976;2022-08-06T08:18:27;2.43;;;1.07;;
14748;SDS011;7466;53.574;9.976;2022-08-06T08:20:54;1.10;;;0.57;;
14748;SDS011;7466;53.574;9.976;2022-08-06T08:23:22;1.70;;;0.80;;
14748;SDS011;7466;53.574;9.976;2022-08-06T08:25:50;1.23;;;0.60;;
14748;SDS011;7466;53.574;9.976;2022-08-06T08:28:17;1.93;;;0.77;;
14748;SDS011;7466;53.574;9.976;2022-08-06T08:30:45;1.53;;;0.60;;
14748;SDS011;7466;53.574;9.976;2022-08-06T08:33:12;2.97;;;0.80;;
14748;SDS011;7466;53.574;9.976;2022-08-06T08:35:40;1.37;;;0.73;;
14748;SDS011;7466;53.574;9.976;2022-08-06T08:38:07;2.00;;;0.87;;
14748;SDS011;7466;53.574;9.976;2022-08-06T08:40:33;2.03;;;0.90;;
14748;SDS011;7466;53.574;9.976;2022-08-06T08:43:02;2.57;;;1.00;;
14748;SDS011;7466;53.574;9.976;2022-08-06T08:45:30;3.30;;;0.93;;
14748;SDS011;7466;53.574;9.976;2022-08-06T08:48:01;2.10;;;0.90;;
14748;SDS011;7466;53.574;9.976;2022-08-06T08:50:29;2.03;;;0.80;;
14748;SDS011;7466;53.574;9.976;2022-08-06T08:52:58;2.20;;;0.80;;
14748;SDS011;7466;53.574;9.976;2022-08-06T08:55:28;2.23;;;0.77;;
14748;SDS011;7466;53.574;9.976;2022-08-06T08:57:56;3.80;;;0.90;;
14748;SDS011;7466;53.574;9.976;2022-08-06T09:00:24;1.77;;;0.80;;
14748;SDS011;7466;53.574;9.976;2022-08-06T09:02:51;1.73;;;0.80;;
14748;SDS011;7466;53.574;9.976;2022-08-06T09:05:20;1.97;;;0.77;;
14748;SDS011;7466;53.574;9.976;2022-08-06T09:07:47;2.97;;;0.90;;
14748;SDS011;7466;53.574;9.976;2022-08-06T09:10:15;2.00;;;0.90;;
14748;SDS011;7466;53.574;9.976;2022-08-06T09:12:42;2.97;;;0.87;;
14748;SDS011;7466;53.574;9.976;2022-08-06T09:15:09;2.80;;;0.90;;
14748;SDS011;7466;53.574;9.976;2022-08-06T09:17:36;2.77;;;0.80;;
14748;SDS011;7466;53.574;9.976;2022-08-06T09:20:04;1.47;;;0.80;;
14748;SDS011;7466;53.574;9.976;2022-08-06T09:22:32;1.20;;;0.77;;
14748;SDS011;7466;53.574;9.976;2022-08-06T09:24:59;1.10;;;0.83;;
14748;SDS011;7466;53.574;9.976;2022-08-06T09:27:32;0.97;;;0.67;;
14748;SDS011;7466;53.574;9.976;2022-08-06T09:30:05;3.97;;;1.17;;
14748;SDS011;7466;53.574;9.976;2022-08-06T09:32:37;2.27;;;0.93;;
14748;SDS011;7466;53.574;9.976;2022-08-06T09:35:15;1.97;;;0.80;;
14748;SDS011;7466;53.574;9.976;2022-08-06T09:37:46;2.40;;;0.70;;
14748;SDS011;7466;53.574;9.976;2022-08-06T09:40:14;2.57;;;0.97;;
14748;SDS011;7466;53.574;9.976;2022-08-06T09:42:42;1.40;;;0.83;;
14748;SDS011;7466;53.574;9.976;2022-08-06T09:45:12;1.10;;;0.80;;
14748;SDS011;7466;53.574;9.976;2022-08-06T09:47:40;1.53;;;0.70;;
14748;SDS011;7466;53.574;9.976;2022-08-06T09:50:07;3.03;;;1.13;;
14748;SDS011;7466;53.574;9.976;2022-08-06T09:52:34;1.17;;;0.80;;
14748;SDS011;7466;53.574;9.976;2022-08-06T09:55:03;4.37;;;0.90;;
14748;SDS011;7466;53.574;9.976;2022-08-06T09:57:41;2.40;;;1.00;;
14748;SDS011;7466;53.574;9.976;2022-08-06T10:00:09;1.87;;;0.73;;
14748;SDS011;7466;53.574;9.976;2022-08-06T10:02:37;1.37;;;0.93;;
14748;SDS011;7466;53.574;9.976;2022-08-06T10:05:07;1.63;;;0.60;;
14748;SDS011;7466;53.574;9.976;2022-08-06T10:07:35;2.23;;;0.87;;
14748;SDS011;7466;53.574;9.976;2022-08-06T10:10:04;1.47;;;0.97;;
14748;SDS011;7466;53.574;9.976;2022-08-06T10:12:32;3.20;;;1.20;;
14748;SDS011;7466;53.574;9.976;2022-08-06T10:14:59;2.00;;;0.90;;
14748;SDS011;7466;53.574;9.976;2022-08-06T10:17:26;1.90;;;0.93;;
14748;SDS011;7466;53.574;9.976;2022-08-06T10:22:48;1.63;;;0.70;;
14748;SDS011;7466;53.574;9.976;2022-08-06T10:25:17;2.53;;;0.90;;
14748;SDS011;7466;53.574;9.976;2022-08-06T10:27:46;2.27;;;0.90;;
14748;SDS011;7466;53.574;9.976;2022-08-06T10:30:14;0.93;;;0.90;;
14748;SDS011;7466;53.574;9.976;2022-08-06T10:32:43;1.77;;;1.00;;
14748;SDS011;7466;53.574;9.976;2022-08-06T10:35:12;2.40;;;0.90;;
14748;SDS011;7466;53.574;9.976;2022-08-06T10:37:42;1.90;;;1.13;;
14748;SDS011;7466;53.574;9.976;2022-08-06T10:40:13;2.00;;;1.33;;
14748;SDS011;7466;53.574;9.976;2022-08-06T10:42:42;2.33;;;1.53;;
14748;SDS011;7466;53.574;9.976;2022-08-06T10:45:10;4.43;;;2.00;;
14748;SDS011;7466;53.574;9.976;2022-08-06T10:47:38;2.87;;;2.20;;
14748;SDS011;7466;53.574;9.976;2022-08-06T10:50:06;2.70;;;2.07;;
14748;SDS011;7466;53.574;9.976;2022-08-06T10:52:35;2.20;;;2.00;;
14748;SDS011;7466;53.574;9.976;2022-08-06T10:55:03;2.97;;;2.30;;
14748;SDS011;7466;53.574;9.976;2022-08-06T10:57:31;2.60;;;2.40;;
14748;SDS011;7466;53.574;9.976;2022-08-06T10:59:59;2.03;;;1.93;;
14748;SDS011;7466;53.574;9.976;2022-08-06T11:02:29;3.30;;;2.57;;
14748;SDS011;7466;53.574;9.976;2022-08-06T11:05:04;2.73;;;2.40;;
14748;SDS011;7466;53.574;9.976;2022-08-06T11:07:41;2.83;;;2.53;;
14748;SDS011;7466;53.574;9.976;2022-08-06T11:13:08;4.23;;;2.70;;
14748;SDS011;7466;53.574;9.976;2022-08-06T11:15:44;3.50;;;2.80;;
14748;SDS011;7466;53.574;9.976;2022-08-06T11:18:12;3.20;;;3.00;;
14748;SDS011;7466;53.574;9.976;2022-08-06T11:20:39;4.97;;;3.00;;
14748;SDS011;7466;53.574;9.976;2022-08-06T11:25:57;3.13;;;2.83;;
14748;SDS011;7466;53.574;9.976;2022-08-06T11:31:32;3.38;;;2.90;;
14748;SDS011;7466;53.574;9.976;2022-08-06T11:34:04;3.20;;;3.00;;
14748;SDS011;7466;53.574;9.976;2022-08-06T11:36:47;4.30;;;3.15;;
14748;SDS011;7466;53.574;9.976;2022-08-06T11:39:15;3.65;;;2.60;;
14748;SDS011;7466;53.574;9.976;2022-08-06T11:41:52;2.92;;;2.72;;
14748;SDS011;7466;53.574;9.976;2022-08-06T11:44:21;3.05;;;2.85;;
14748;SDS011;7466;53.574;9.976;2022-08-06T11:47:04;4.93;;;2.90;;
14748;SDS011;7466;53.574;9.976;2022-08-06T11:49:36;3.92;;;3.10;;
14748;SDS011;7466;53.574;9.976;2022-08-06T11:52:05;4.60;;;3.17;;
14748;SDS011;7466;53.574;9.976;2022-08-06T11:54:34;4.57;;;3.22;;
14748;SDS011;7466;53.574;9.976;2022-08-06T11:57:21;3.72;;;3.42;;
14748;SDS011;7466;53.574;9.976;2022-08-06T12:00:06;3.53;;;3.22;;
14748;SDS011;7466;53.574;9.976;2022-08-06T12:02:46;3.35;;;2.92;;
14748;SDS011;7466;53.574;9.976;2022-08-06T12:05:31;4.22;;;3.15;;
14748;SDS011;7466;53.574;9.976;2022-08-06T12:08:22;3.08;;;2.88;;
14748;SDS011;7466;53.574;9.976;2022-08-06T12:13:56;3.30;;;3.10;;
14748;SDS011;7466;53.574;9.976;2022-08-06T12:16:34;3.80;;;3.50;;
14748;SDS011;7466;53.574;9.976;2022-08-06T12:19:04;4.43;;;3.50;;
14748;SDS011;7466;53.574;9.976;2022-08-06T12:21:36;5.03;;;3.87;;
14748;SDS011;7466;53.574;9.976;2022-08-06T12:24:05;3.93;;;3.30;;
14748;SDS011;7466;53.574;9.976;2022-08-06T12:26:32;3.45;;;3.15;;
14748;SDS011;7466;53.574;9.976;2022-08-06T12:29:00;3.50;;;3.20;;
14748;SDS011;7466;53.574;9.976;2022-08-06T12:31:30;3.33;;;3.13;;
14748;SDS011;7466;53.574;9.976;2022-08-06T12:33:58;3.40;;;3.20;;
14748;SDS011;7466;53.574;9.976;2022-08-06T12:36:27;3.70;;;3.40;;
14748;SDS011;7466;53.574;9.976;2022-08-06T12:38:56;3.35;;;3.15;;
14748;SDS011;7466;53.574;9.976;2022-08-06T12:41:31;3.80;;;3.00;;
14748;SDS011;7466;53.574;9.976;2022-08-06T12:43:59;3.63;;;3.30;;
14748;SDS011;7466;53.574;9.976;2022-08-06T12:46:26;4.15;;;3.47;;
14748;SDS011;7466;53.574;9.976;2022-08-06T12:48:53;3.20;;;3.00;;
14748;SDS011;7466;53.574;9.976;2022-08-06T12:51:20;2.85;;;2.70;;
14748;SDS011;7466;53.574;9.976;2022-08-06T12:53:48;3.03;;;2.83;;
14748;SDS011;7466;53.574;9.976;2022-08-06T12:56:17;3.00;;;2.80;;
14748;SDS011;7466;53.574;9.976;2022-08-06T12:58:46;2.88;;;2.65;;
14748;SDS011;7466;53.574;9.976;2022-08-06T13:01:15;3.83;;;3.33;;
14748;SDS011;7466;53.574;9.976;2022-08-06T13:03:45;3.38;;;3.17;;
14748;SDS011;7466;53.574;9.976;2022-08-06T13:06:14;3.22;;;3.00;;
14748;SDS011;7466;53.574;9.976;2022-08-06T13:08:44;3.30;;;3.10;;
14748;SDS011;7466;53.574;9.976;2022-08-06T13:11:14;3.13;;;2.92;;
14748;SDS011;7466;53.574;9.976;2022-08-06T13:13:42;3.17;;;2.97;;
14748;SDS011;7466;53.574;9.976;2022-08-06T13:16:13;3.95;;;3.22;;
14748;SDS011;7466;53.574;9.976;2022-08-06T13:18:41;3.00;;;2.80;;
14748;SDS011;7466;53.574;9.976;2022-08-06T13:21:16;3.60;;;3.30;;
14748;SDS011;7466;53.574;9.976;2022-08-06T13:23:45;3.55;;;2.90;;
14748;SDS011;7466;53.574;9.976;2022-08-06T13:26:17;3.22;;;3.03;;
14748;SDS011;7466;53.574;9.976;2022-08-06T13:29:07;3.22;;;3.03;;
14748;SDS011;7466;53.574;9.976;2022-08-06T13:31:40;3.53;;;3.05;;
14748;SDS011;7466;53.574;9.976;2022-08-06T13:34:08;3.35;;;3.15;;
14748;SDS011;7466;53.574;9.976;2022-08-06T13:36:36;3.65;;;3.33;;
14748;SDS011;7466;53.574;9.976;2022-08-06T13:39:22;3.53;;;3.30;;
14748;SDS011;7466;53.574;9.976;2022-08-06T13:42:04;3.85;;;3.50;;
14748;SDS011;7466;53.574;9.976;2022-08-06T13:44:37;3.45;;;3.20;;
14748;SDS011;7466;53.574;9.976;2022-08-06T13:47:06;3.72;;;3.28;;
14748;SDS011;7466;53.574;9.976;2022-08-06T13:49:35;3.75;;;3.50;;
14748;SDS011;7466;53.574;9.976;2022-08-06T13:52:02;3.25;;;3.05;;
14748;SDS011;7466;53.574;9.976;2022-08-06T13:54:29;3.65;;;3.30;;
14748;SDS011;7466;53.574;9.976;2022-08-06T13:56:56;3.80;;;3.28;;
14748;SDS011;7466;53.574;9.976;2022-08-06T13:59:26;3.50;;;3.30;;
14748;SDS011;7466;53.574;9.976;2022-08-06T14:01:54;3.80;;;3.50;;
14748;SDS011;7466;53.574;9.976;2022-08-06T14:04:23;3.63;;;3.22;;
14748;SDS011;7466;53.574;9.976;2022-08-06T14:06:53;3.65;;;3.38;;
14748;SDS011;7466;53.574;9.976;2022-08-06T14:09:21;3.83;;;3.33;;
14748;SDS011;7466;53.574;9.976;2022-08-06T14:11:50;3.50;;;3.28;;
14748;SDS011;7466;53.574;9.976;2022-08-06T14:14:18;3.85;;;3.65;;
14748;SDS011;7466;53.574;9.976;2022-08-06T14:16:46;3.88;;;3.58;;
14748;SDS011;7466;53.574;9.976;2022-08-06T14:19:13;3.63;;;3.33;;
14748;SDS011;7466;53.574;9.976;2022-08-06T14:21:39;4.20;;;3.80;;
14748;SDS011;7466;53.574;9.976;2022-08-06T14:24:06;5.35;;;4.00;;
14748;SDS011;7466;53.574;9.976;2022-08-06T14:26:33;4.25;;;3.95;;
14748;SDS011;7466;53.574;9.976;2022-08-06T14:29:02;4.60;;;4.20;;
14748;SDS011;7466;53.574;9.976;2022-08-06T14:31:29;4.60;;;4.20;;
14748;SDS011;7466;53.574;9.976;2022-08-06T14:33:58;4.35;;;4.00;;
14748;SDS011;7466;53.574;9.976;2022-08-06T14:36:25;4.13;;;3.83;;
14748;SDS011;7466;53.574;9.976;2022-08-06T14:38:52;4.53;;;4.22;;
14748;SDS011;7466;53.574;9.976;2022-08-06T14:41:19;3.95;;;3.75;;
14748;SDS011;7466;53.574;9.976;2022-08-06T14:44:03;4.70;;;4.32;;
14748;SDS011;7466;53.574;9.976;2022-08-06T14:46:48;4.65;;;4.22;;
14748;SDS011;7466;53.574;9.976;2022-08-06T14:49:16;5.13;;;4.55;;
14748;SDS011;7466;53.574;9.976;2022-08-06T14:51:43;4.70;;;4.22;;
14748;SDS011;7466;53.574;9.976;2022-08-06T14:54:09;4.00;;;3.80;;
14748;SDS011;7466;53.574;9.976;2022-08-06T14:56:36;5.88;;;3.88;;
14748;SDS011;7466;53.574;9.976;2022-08-06T14:59:03;4.50;;;4.10;;
14748;SDS011;7466;53.574;9.976;2022-08-06T15:01:31;4.47;;;4.18;;
14748;SDS011;7466;53.574;9.976;2022-08-06T15:03:57;5.00;;;4.43;;
14748;SDS011;7466;53.574;9.976;2022-08-06T15:06:25;4.80;;;4.50;;
14748;SDS011;7466;53.574;9.976;2022-08-06T15:08:53;4.82;;;4.32;;
14748;SDS011;7466;53.574;9.976;2022-08-06T15:11:19;5.15;;;4.72;;
14748;SDS011;7466;53.574;9.976;2022-08-06T15:13:46;4.90;;;4.50;;
14748;SDS011;7466;53.574;9.976;2022-08-06T15:16:13;4.78;;;4.18;;
14748;SDS011;7466;53.574;9.976;2022-08-06T15:18:40;5.20;;;4.72;;
14748;SDS011;7466;53.574;9.976;2022-08-06T15:21:07;4.82;;;4.30;;
14748;SDS011;7466;53.574;9.976;2022-08-06T15:23:36;4.60;;;4.20;;
14748;SDS011;7466;53.574;9.976;2022-08-06T15:26:03;4.82;;;4.50;;
14748;SDS011;7466;53.574;9.976;2022-08-06T15:28:30;5.00;;;4.70;;
14748;SDS011;7466;53.574;9.976;2022-08-06T15:30:57;5.38;;;5.00;;